createdAt,value
2022-12-08T00:01:34.686Z,1.14
2022-12-08T00:04:04.428Z,1.14
2022-12-08T00:06:56.832Z,1.13
2022-12-08T00:09:39.891Z,1.13
2022-12-08T00:12:17.591Z,1.15
2022-12-08T00:14:49.846Z,1.11
2022-12-08T00:17:17.526Z,1.07
2022-12-08T00:19:46.155Z,1.11
2022-12-08T00:22:14.718Z,1.06
2022-12-08T00:24:45.732Z,1.02
2022-12-08T00:27:16.184Z,1.03
2022-12-08T00:29:45.641Z,1.10
2022-12-08T00:32:13.608Z,1.09
2022-12-08T00:34:41.292Z,1.03
2022-12-08T00:37:09.007Z,0.98
2022-12-08T00:39:36.338Z,0.99
2022-12-08T00:42:12.975Z,1.01
2022-12-08T00:44:43.341Z,1.01
2022-12-08T00:47:11.497Z,1.01
2022-12-08T00:49:40.496Z,0.98
2022-12-08T00:52:08.185Z,0.96
2022-12-08T00:54:35.771Z,0.95
2022-12-08T00:57:03.643Z,0.94
2022-12-08T00:59:30.908Z,0.94
2022-12-08T01:01:58.199Z,0.88
2022-12-08T01:04:26.006Z,0.91
2022-12-08T01:06:53.428Z,0.80
2022-12-08T01:09:20.828Z,0.78
2022-12-08T01:11:48.143Z,0.80
2022-12-08T01:14:15.770Z,0.79
2022-12-08T01:16:43.758Z,0.79
2022-12-08T01:19:14.458Z,0.81
2022-12-08T01:21:43.229Z,0.82
2022-12-08T01:24:15.285Z,0.82
2022-12-08T01:26:42.687Z,0.87
2022-12-08T01:29:11.383Z,0.95
2022-12-08T01:31:39.512Z,0.97
2022-12-08T01:34:08.412Z,0.95
2022-12-08T01:36:39.785Z,0.94
2022-12-08T01:39:14.460Z,1.02
2022-12-08T01:41:43.832Z,0.95
2022-12-08T01:44:10.965Z,0.94
2022-12-08T01:46:45.273Z,0.95
2022-12-08T01:49:22.542Z,1.01
2022-12-08T01:52:05.227Z,0.99
2022-12-08T01:54:43.610Z,0.98
2022-12-08T01:57:20.758Z,1.05
2022-12-08T02:00:04.381Z,0.98
2022-12-08T02:02:50.480Z,1.02
2022-12-08T02:05:23.604Z,1.04
2022-12-08T02:07:52.975Z,1.05
2022-12-08T02:10:24.006Z,0.97
2022-12-08T02:12:53.463Z,0.98
2022-12-08T02:15:37.417Z,0.94
2022-12-08T02:19:31.606Z,0.93
2022-12-08T02:22:10.236Z,0.98
2022-12-08T02:25:17.652Z,1.03
2022-12-08T02:28:27.585Z,0.95
2022-12-08T02:31:26.735Z,1.01
2022-12-08T02:34:41.312Z,0.86
2022-12-08T02:37:18.206Z,0.84
2022-12-08T02:40:29.162Z,0.92
2022-12-08T02:43:12.856Z,0.89
2022-12-08T02:45:49.220Z,0.91
2022-12-08T02:48:16.612Z,0.91
2022-12-08T02:50:44.229Z,0.96
2022-12-08T02:56:43.468Z,0.79
2022-12-08T03:00:08.246Z,0.79
2022-12-08T03:03:15.889Z,0.83
2022-12-08T03:06:22.665Z,0.89
2022-12-08T03:09:24.810Z,0.84
2022-12-08T03:12:13.745Z,0.86
2022-12-08T03:14:49.057Z,0.93
2022-12-08T03:17:19.932Z,0.97
2022-12-08T03:19:49.119Z,1.03
2022-12-08T03:22:22.313Z,0.98
2022-12-08T03:24:50.987Z,1.02
2022-12-08T03:27:25.028Z,1.02
2022-12-08T03:29:56.774Z,1.02
2022-12-08T03:33:02.256Z,0.97
2022-12-08T03:35:34.462Z,1.00
2022-12-08T03:38:14.347Z,0.98
2022-12-08T03:40:42.932Z,1.04
2022-12-08T03:43:10.768Z,1.14
2022-12-08T03:45:37.932Z,1.24
2022-12-08T03:48:05.529Z,1.20
2022-12-08T03:50:32.729Z,1.15
2022-12-08T03:52:59.909Z,1.17
2022-12-08T03:55:27.162Z,1.26
2022-12-08T03:57:54.397Z,1.21
2022-12-08T04:00:22.046Z,1.22
2022-12-08T04:02:49.267Z,1.32
2022-12-08T04:05:17.508Z,1.43
2022-12-08T04:07:44.788Z,1.47
2022-12-08T04:10:12.001Z,1.51
2022-12-08T04:12:39.187Z,1.44
2022-12-08T04:15:07.363Z,1.51
2022-12-08T04:17:34.606Z,1.57
2022-12-08T04:20:01.950Z,1.47
2022-12-08T04:22:29.389Z,1.52
2022-12-08T04:24:56.789Z,1.56
2022-12-08T04:27:24.049Z,1.58
2022-12-08T04:29:51.251Z,1.52
2022-12-08T04:32:19.452Z,1.52
2022-12-08T04:34:46.918Z,1.49
2022-12-08T04:37:14.137Z,1.51
2022-12-08T04:39:41.419Z,1.59
2022-12-08T04:42:08.636Z,1.60
2022-12-08T04:44:35.765Z,1.63
2022-12-08T04:47:03.071Z,1.63
2022-12-08T04:49:30.403Z,1.66
2022-12-08T04:51:57.577Z,1.70
2022-12-08T04:54:24.718Z,1.62
2022-12-08T04:56:51.887Z,1.60
2022-12-08T04:59:19.123Z,1.60
2022-12-08T05:01:46.468Z,1.54
2022-12-08T05:04:13.814Z,1.55
2022-12-08T05:06:41.384Z,1.59
2022-12-08T05:09:08.574Z,1.59
2022-12-08T05:11:35.836Z,1.58
2022-12-08T05:14:03.132Z,1.64
2022-12-08T05:16:30.346Z,1.68
2022-12-08T05:18:57.555Z,1.70
2022-12-08T05:21:24.685Z,1.66
2022-12-08T05:23:51.808Z,1.67
2022-12-08T05:26:18.936Z,1.71
2022-12-08T05:28:46.648Z,1.73
2022-12-08T05:31:16.665Z,1.70
2022-12-08T05:33:46.133Z,1.68
2022-12-08T05:36:15.574Z,1.72
2022-12-08T05:38:43.852Z,1.74
2022-12-08T05:41:20.979Z,1.78
2022-12-08T05:43:49.157Z,1.76
2022-12-08T05:46:17.425Z,1.71
2022-12-08T05:48:44.737Z,1.71
2022-12-08T05:51:24.180Z,1.73
2022-12-08T05:53:52.932Z,1.68
2022-12-08T05:56:21.241Z,1.63
2022-12-08T05:58:48.785Z,1.56
2022-12-08T06:01:26.199Z,1.55
2022-12-08T06:03:54.050Z,1.58
2022-12-08T06:06:21.965Z,1.60
2022-12-08T06:08:49.273Z,1.61
2022-12-08T06:11:30.470Z,1.66
2022-12-08T06:13:58.994Z,1.67
2022-12-08T06:16:28.415Z,1.59
2022-12-08T06:18:57.152Z,1.56
2022-12-08T06:21:25.033Z,1.52
2022-12-08T06:23:54.474Z,1.44
2022-12-08T06:26:23.465Z,1.37
2022-12-08T06:28:50.854Z,1.31
2022-12-08T06:31:25.277Z,1.37
2022-12-08T06:33:54.447Z,1.54
2022-12-08T06:36:27.017Z,1.62
2022-12-08T06:38:54.794Z,1.60
2022-12-08T06:41:22.111Z,1.70
2022-12-08T06:43:49.352Z,1.65
2022-12-08T06:46:19.929Z,1.65
2022-12-08T06:48:48.092Z,1.66
2022-12-08T06:51:20.674Z,1.62
2022-12-08T06:53:48.269Z,1.60
2022-12-08T06:56:16.687Z,1.56
2022-12-08T06:58:49.043Z,1.53
2022-12-08T07:01:19.502Z,1.51
2022-12-08T07:03:47.720Z,1.49
2022-12-08T07:06:20.582Z,1.46
2022-12-08T07:08:47.843Z,1.40
2022-12-08T07:11:20.934Z,1.29
2022-12-08T07:13:49.192Z,1.20
2022-12-08T07:16:16.693Z,1.18
2022-12-08T07:18:44.157Z,1.14
2022-12-08T07:21:14.920Z,1.22
2022-12-08T07:23:44.962Z,1.26
2022-12-08T07:26:13.720Z,1.20
2022-12-08T07:28:42.769Z,1.09
2022-12-08T07:31:24.542Z,1.02
2022-12-08T07:33:53.147Z,1.11
2022-12-08T07:36:21.708Z,1.13
2022-12-08T07:38:49.977Z,1.12
2022-12-08T07:41:23.702Z,1.18
2022-12-08T07:43:53.481Z,1.26
2022-12-08T07:46:25.138Z,1.30
2022-12-08T07:48:54.524Z,1.29
2022-12-08T07:51:21.995Z,1.23
2022-12-08T07:53:54.272Z,1.20
2022-12-08T07:56:23.077Z,1.40
2022-12-08T07:58:50.640Z,1.48
2022-12-08T08:01:29.219Z,1.49
2022-12-08T08:04:04.335Z,1.57
2022-12-08T08:06:34.385Z,1.67
2022-12-08T08:09:01.891Z,1.67
2022-12-08T08:11:29.117Z,1.65
2022-12-08T08:13:57.887Z,1.70
2022-12-08T08:16:25.213Z,1.74
2022-12-08T08:18:52.477Z,1.90
2022-12-08T08:21:45.388Z,2.02
2022-12-08T08:24:08.859Z,2.03
2022-12-08T08:26:37.783Z,2.09
2022-12-08T08:29:05.144Z,2.22
2022-12-08T08:31:33.508Z,2.29
2022-12-08T08:34:05.939Z,2.39
2022-12-08T08:36:33.524Z,2.49
2022-12-08T08:39:00.763Z,2.58
2022-12-08T08:41:28.058Z,2.60
2022-12-08T08:43:55.506Z,2.57
2022-12-08T08:46:22.805Z,2.53
2022-12-08T08:48:50.116Z,2.53
2022-12-08T08:51:17.448Z,2.42
2022-12-08T08:53:44.708Z,2.37
2022-12-08T08:56:16.568Z,2.45
2022-12-08T08:58:43.800Z,2.36
2022-12-08T09:01:26.215Z,2.43
2022-12-08T09:03:55.129Z,2.23
2022-12-08T09:06:23.602Z,2.36
2022-12-08T09:08:52.022Z,2.27
2022-12-08T09:11:19.665Z,2.14
2022-12-08T09:13:53.300Z,2.11
2022-12-08T09:16:22.208Z,2.06
2022-12-08T09:18:49.808Z,2.14
2022-12-08T09:21:26.099Z,2.53
2022-12-08T09:23:57.424Z,2.60
2022-12-08T09:26:28.154Z,2.48
2022-12-08T09:28:57.244Z,2.39
2022-12-08T09:31:25.582Z,2.79
2022-12-08T09:33:53.128Z,2.67
2022-12-08T09:36:21.317Z,2.86
2022-12-08T09:38:50.223Z,2.85
2022-12-08T09:41:37.875Z,2.91
2022-12-08T09:44:44.328Z,2.75
2022-12-08T09:47:57.716Z,3.01
2022-12-08T09:50:52.690Z,3.14
2022-12-08T09:54:04.222Z,3.20
2022-12-08T09:56:36.484Z,2.95
2022-12-08T09:59:27.857Z,3.14
2022-12-08T10:01:55.466Z,3.04
2022-12-08T10:04:35.173Z,2.93
2022-12-08T10:07:42.648Z,3.08
2022-12-08T10:10:39.828Z,3.13
2022-12-08T10:13:33.406Z,3.19
2022-12-08T10:16:42.385Z,3.08
2022-12-08T10:19:23.926Z,3.09
2022-12-08T10:21:53.669Z,3.31
2022-12-08T10:24:41.545Z,3.53
2022-12-08T10:27:13.297Z,3.58
2022-12-08T10:29:41.163Z,3.55
2022-12-08T10:32:23.871Z,3.62
2022-12-08T10:35:13.372Z,3.69
2022-12-08T10:37:41.105Z,3.82
2022-12-08T10:40:17.934Z,3.96
2022-12-08T10:42:52.935Z,4.12
2022-12-08T10:45:33.359Z,4.04
2022-12-08T10:48:14.838Z,4.19
2022-12-08T10:50:49.727Z,4.29
2022-12-08T10:53:28.273Z,4.40
2022-12-08T10:56:01.292Z,4.41
2022-12-08T10:58:49.280Z,4.42
2022-12-08T11:01:34.784Z,4.31
2022-12-08T11:04:05.789Z,4.24
2022-12-08T11:06:39.509Z,4.38
2022-12-08T11:09:31.130Z,4.84
2022-12-08T11:12:15.131Z,4.96
2022-12-08T11:14:51.445Z,4.95
2022-12-08T11:17:28.323Z,5.15
2022-12-08T11:19:59.532Z,5.26
2022-12-08T11:22:44.458Z,4.76
2022-12-08T11:25:24.814Z,4.90
2022-12-08T11:27:59.252Z,4.94
2022-12-08T11:30:38.469Z,4.94
2022-12-08T11:33:38.424Z,4.97
2022-12-08T11:36:11.989Z,4.72
2022-12-08T11:38:47.817Z,5.09
2022-12-08T11:41:23.737Z,5.29
2022-12-08T11:44:12.996Z,5.24
2022-12-08T11:47:06.549Z,5.41
2022-12-08T11:49:41.862Z,5.46
2022-12-08T11:52:45.196Z,5.48
2022-12-08T11:55:48.224Z,5.48
2022-12-08T11:58:36.699Z,5.47
2022-12-08T12:01:04.133Z,5.55
2022-12-08T12:03:45.398Z,4.88
2022-12-08T12:07:00.603Z,4.70
2022-12-08T12:09:49.072Z,4.84
2022-12-08T12:13:13.152Z,4.63
2022-12-08T12:16:13.887Z,4.90
2022-12-08T12:18:59.341Z,4.94
2022-12-08T12:21:40.956Z,5.07
2022-12-08T12:24:36.278Z,5.31
2022-12-08T12:27:38.628Z,5.45
2022-12-08T12:30:21.944Z,5.53
2022-12-08T12:33:00.371Z,5.56
2022-12-08T12:35:45.364Z,5.42
2022-12-08T12:38:51.475Z,5.16
2022-12-08T12:41:41.548Z,5.29
2022-12-08T12:44:28.787Z,5.40
2022-12-08T12:47:01.677Z,5.01
2022-12-08T12:49:41.101Z,4.74
2022-12-08T12:52:20.985Z,4.97
2022-12-08T12:54:51.084Z,4.83
2022-12-08T12:57:24.913Z,5.08
2022-12-08T12:59:55.801Z,5.09
2022-12-08T13:02:33.892Z,5.04
2022-12-08T13:05:23.332Z,5.29
2022-12-08T13:08:01.337Z,5.18
2022-12-08T13:10:50.300Z,5.06
2022-12-08T13:13:19.130Z,5.03
2022-12-08T13:15:58.072Z,5.04
2022-12-08T13:18:42.174Z,5.12
2022-12-08T13:21:09.306Z,5.32
2022-12-08T13:23:39.339Z,5.12
2022-12-08T13:26:25.267Z,5.39
2022-12-08T13:29:01.589Z,5.72
2022-12-08T13:31:50.902Z,5.54
2022-12-08T13:34:53.250Z,5.84
2022-12-08T13:37:31.904Z,6.25
2022-12-08T13:40:28.188Z,6.28
2022-12-08T13:43:43.498Z,6.24
2022-12-08T13:58:44.464Z,6.04
2022-12-08T14:01:24.111Z,6.03
2022-12-08T14:06:49.715Z,5.90
2022-12-08T14:09:22.653Z,5.89
2022-12-08T14:12:16.408Z,5.89
2022-12-08T14:15:02.993Z,5.87
2022-12-08T14:17:31.562Z,5.91
2022-12-08T14:20:19.868Z,5.83
2022-12-08T14:22:48.588Z,5.88
2022-12-08T14:25:17.632Z,5.86
2022-12-08T14:27:46.979Z,5.76
2022-12-08T14:30:14.420Z,5.78
2022-12-08T14:33:09.714Z,5.66
2022-12-08T14:35:38.932Z,5.73
2022-12-08T14:38:18.065Z,5.53
2022-12-08T14:40:49.915Z,5.31
2022-12-08T14:43:26.447Z,5.11
2022-12-08T14:46:06.122Z,4.82
2022-12-08T14:48:36.377Z,4.68
2022-12-08T14:51:24.104Z,4.76
2022-12-08T14:54:11.917Z,4.62
2022-12-08T14:56:54.229Z,4.53
2022-12-08T14:59:30.467Z,4.48
2022-12-08T15:02:15.488Z,4.47
2022-12-08T15:04:47.602Z,4.28
2022-12-08T15:07:23.040Z,4.16
2022-12-08T15:10:16.573Z,4.06
2022-12-08T15:13:22.839Z,4.03
2022-12-08T15:15:56.959Z,4.04
2022-12-08T15:18:41.299Z,4.15
2022-12-08T15:21:12.917Z,4.06
2022-12-08T15:23:49.373Z,3.90
2022-12-08T15:26:28.173Z,3.68
2022-12-08T15:28:56.024Z,3.51
2022-12-08T15:31:23.495Z,3.56
2022-12-08T15:33:51.002Z,3.51
2022-12-08T15:36:18.688Z,3.51
2022-12-08T15:38:45.921Z,3.44
2022-12-08T15:41:15.310Z,3.42
2022-12-08T15:43:43.757Z,3.37
2022-12-08T15:46:11.751Z,3.36
2022-12-08T15:48:39.005Z,3.32
2022-12-08T15:51:06.267Z,3.20
2022-12-08T15:53:33.577Z,3.13
2022-12-08T15:58:56.830Z,3.06
2022-12-08T16:01:25.730Z,3.10
2022-12-08T16:09:41.427Z,3.04
2022-12-08T16:15:59.084Z,2.92
2022-12-08T16:18:34.408Z,2.77
2022-12-08T16:21:13.868Z,2.86
2022-12-08T16:23:50.110Z,2.86
2022-12-08T16:29:22.546Z,2.86
2022-12-08T16:31:50.624Z,2.95
2022-12-08T16:34:17.864Z,2.84
2022-12-08T16:36:45.255Z,3.06
2022-12-08T16:39:14.583Z,2.95
2022-12-08T16:42:14.356Z,2.72
2022-12-08T16:44:42.125Z,2.46
2022-12-08T16:47:10.113Z,2.40
2022-12-08T16:49:39.219Z,2.34
2022-12-08T16:52:07.241Z,2.24
2022-12-08T16:54:34.440Z,2.26
2022-12-08T16:57:01.640Z,2.28
2022-12-08T16:59:28.868Z,2.42
2022-12-08T17:01:56.107Z,2.41
2022-12-08T17:04:31.465Z,2.28
2022-12-08T17:06:59.904Z,2.23
2022-12-08T17:09:28.508Z,2.32
2022-12-08T17:12:00.261Z,2.29
2022-12-08T17:14:35.177Z,2.29
2022-12-08T17:17:02.527Z,2.24
2022-12-08T17:19:30.791Z,2.30
2022-12-08T17:21:57.967Z,2.34
2022-12-08T17:24:28.949Z,2.29
2022-12-08T17:26:59.945Z,2.25
2022-12-08T17:29:27.113Z,2.20
2022-12-08T17:31:54.351Z,2.20
2022-12-08T17:34:21.721Z,2.25
2022-12-08T17:36:49.061Z,2.16
2022-12-08T17:39:18.822Z,2.12
2022-12-08T17:41:47.303Z,2.18
2022-12-08T17:44:18.744Z,2.20
2022-12-08T17:46:52.434Z,2.20
2022-12-08T17:49:25.698Z,2.09
2022-12-08T17:52:04.258Z,2.19
2022-12-08T17:54:31.661Z,2.37
2022-12-08T17:56:59.693Z,2.45
2022-12-08T17:59:29.192Z,2.40
2022-12-08T18:01:59.190Z,2.34
2022-12-08T18:04:28.348Z,2.34
2022-12-08T18:06:58.141Z,2.27
2022-12-08T18:09:25.417Z,2.29
2022-12-08T18:11:52.880Z,2.36
2022-12-08T18:14:20.360Z,2.34
2022-12-08T18:16:48.722Z,2.34
2022-12-08T18:19:16.439Z,2.36
2022-12-08T18:21:44.256Z,2.28
2022-12-08T18:24:23.246Z,2.17
2022-12-08T18:26:52.555Z,2.21
2022-12-08T18:29:22.560Z,2.16
2022-12-08T18:31:51.291Z,2.18
2022-12-08T18:34:19.059Z,2.18
2022-12-08T18:36:47.395Z,2.19
2022-12-08T18:39:26.345Z,2.20
2022-12-08T18:41:57.662Z,2.26
2022-12-08T18:44:25.368Z,2.27
2022-12-08T18:46:52.650Z,2.31
2022-12-08T18:49:20.723Z,2.39
2022-12-08T18:51:48.184Z,2.42
2022-12-08T18:54:15.583Z,2.47
2022-12-08T18:56:42.836Z,2.56
2022-12-08T18:59:13.298Z,2.57
2022-12-08T19:01:41.339Z,2.58
2022-12-08T19:04:27.797Z,2.57
2022-12-08T19:06:55.686Z,2.57
2022-12-08T19:09:24.458Z,2.56
2022-12-08T19:11:51.803Z,2.50
2022-12-08T19:14:24.051Z,2.46
2022-12-08T19:16:54.718Z,2.38
2022-12-08T19:19:21.952Z,2.26
2022-12-08T19:21:49.534Z,2.18
2022-12-08T19:24:16.872Z,2.20
2022-12-08T19:26:44.804Z,2.29
2022-12-08T19:29:12.633Z,2.32
2022-12-08T19:31:40.948Z,2.39
2022-12-08T19:34:12.088Z,2.39
2022-12-08T19:36:42.586Z,2.33
2022-12-08T19:39:41.581Z,2.33
2022-12-08T19:42:37.241Z,2.33
2022-12-08T19:45:13.661Z,2.28
2022-12-08T19:47:42.668Z,2.31
2022-12-08T19:50:32.747Z,2.38
2022-12-08T19:53:00.933Z,2.43
2022-12-08T19:55:28.603Z,2.53
2022-12-08T19:57:57.023Z,2.57
2022-12-08T20:00:24.729Z,2.57
2022-12-08T20:02:52.068Z,2.58
2022-12-08T20:05:19.565Z,2.59
2022-12-08T20:07:47.073Z,2.60
2022-12-08T20:10:28.433Z,2.66
2022-12-08T20:13:16.639Z,2.66
2022-12-08T20:15:45.388Z,2.66
2022-12-08T20:18:14.898Z,2.72
2022-12-08T20:20:45.546Z,2.72
2022-12-08T20:23:15.194Z,2.72
2022-12-08T20:25:45.741Z,2.71
2022-12-08T20:28:13.188Z,2.74
2022-12-08T20:30:46.728Z,2.81
2022-12-08T20:33:19.093Z,2.85
2022-12-08T20:35:47.392Z,2.91
2022-12-08T20:38:14.593Z,2.90
2022-12-08T20:40:47.116Z,2.91
2022-12-08T20:43:14.548Z,2.89
2022-12-08T20:45:41.826Z,2.95
2022-12-08T20:48:09.100Z,2.87
2022-12-08T20:50:36.452Z,2.83
2022-12-08T20:53:04.039Z,2.85
2022-12-08T20:55:31.789Z,2.90
2022-12-08T20:57:59.113Z,2.90
2022-12-08T21:00:27.902Z,2.89
2022-12-08T21:02:57.006Z,2.84
2022-12-08T21:05:24.985Z,2.91
2022-12-08T21:07:52.537Z,2.99
2022-12-08T21:10:20.044Z,3.00
2022-12-08T21:12:47.598Z,2.96
2022-12-08T21:15:14.907Z,2.92
2022-12-08T21:17:42.240Z,2.95
2022-12-08T21:20:10.576Z,2.97
2022-12-08T21:22:40.247Z,2.98
2022-12-08T21:25:09.220Z,3.03
2022-12-08T21:27:39.018Z,3.05
2022-12-08T21:30:09.524Z,3.01
2022-12-08T21:32:39.127Z,2.97
2022-12-08T21:35:07.991Z,3.01
2022-12-08T21:37:35.773Z,3.01
2022-12-08T21:40:05.089Z,2.93
2022-12-08T21:42:45.078Z,2.92
2022-12-08T21:45:19.778Z,3.00
2022-12-08T21:47:49.603Z,3.03
2022-12-08T21:50:18.494Z,3.05
2022-12-08T21:52:49.054Z,3.10
2022-12-08T21:55:19.093Z,3.12
2022-12-08T21:57:47.454Z,3.12
2022-12-08T22:00:24.191Z,3.11
2022-12-08T22:03:02.419Z,3.09
2022-12-08T22:05:30.215Z,3.06
2022-12-08T22:07:58.472Z,3.08
2022-12-08T22:10:25.735Z,3.09
2022-12-08T22:12:53.008Z,3.13
2022-12-08T22:15:20.503Z,3.15
2022-12-08T22:17:47.882Z,3.18
2022-12-08T22:20:16.562Z,3.16
2022-12-08T22:22:45.581Z,3.12
2022-12-08T22:25:13.218Z,3.09
2022-12-08T22:27:41.469Z,3.09
2022-12-08T22:30:13.226Z,3.07
2022-12-08T22:32:41.890Z,3.07
2022-12-08T22:35:10.616Z,3.10
2022-12-08T22:37:38.130Z,3.11
2022-12-08T22:40:10.231Z,3.15
2022-12-08T22:42:37.640Z,3.20
2022-12-08T22:45:05.736Z,3.14
2022-12-08T22:47:33.296Z,3.14
2022-12-08T22:50:02.567Z,3.15
2022-12-08T22:52:29.990Z,3.15
2022-12-08T22:54:57.354Z,3.15
2022-12-08T22:57:24.662Z,3.21
2022-12-08T22:59:51.899Z,3.26
2022-12-08T23:02:19.258Z,3.24
2022-12-08T23:04:46.818Z,3.21
2022-12-08T23:07:14.494Z,3.22
2022-12-08T23:09:41.758Z,3.27
2022-12-08T23:12:09.073Z,3.17
2022-12-08T23:14:36.341Z,3.13
2022-12-08T23:17:03.842Z,3.13
2022-12-08T23:19:31.125Z,3.20
2022-12-08T23:21:58.420Z,3.17
2022-12-08T23:24:25.682Z,3.13
2022-12-08T23:26:53.222Z,3.10
2022-12-08T23:29:20.356Z,3.07
2022-12-08T23:31:47.890Z,3.06
2022-12-08T23:34:15.473Z,3.10
2022-12-08T23:36:43.834Z,3.10
2022-12-08T23:39:12.229Z,3.08
2022-12-08T23:41:39.601Z,3.12
2022-12-08T23:44:07.170Z,3.10
2022-12-08T23:46:35.358Z,3.10
2022-12-08T23:49:02.569Z,3.08
2022-12-08T23:51:30.188Z,3.07
2022-12-08T23:53:57.421Z,3.10
2022-12-08T23:56:30.080Z,3.14
2022-12-08T23:58:58.049Z,3.10
